This is the latest recevied weather packets stored in our database for station/object K4AGR-13. If no packets are shown the sender has not sent any weather packets the latest 10 day(s).
| Time | Temp. | Humidity | Pressure | Rain* | Wind** | Luminosity | Snow |
|---|---|---|---|---|---|---|---|
| 1777909103 | 23.33° C | 35% | 1018.2 hPa | 0 mm | - | 898 W/m² | - |
| 1777908801 | 23.33° C | 36% | 1018.3 hPa | 0 mm | - | 888 W/m² | - |
| 1777908497 | 23.33° C | 37% | 1018.3 hPa | 0 mm | - | 873 W/m² | - |
| 1777908194 | 23.33° C | 35% | 1018.1 hPa | 0 mm | - | 858 W/m² | - |
| 1777907891 | 23.33° C | 36% | 1018.4 hPa | 0 mm | - | 843 W/m² | - |
| 1777907586 | 23.33° C | 38% | 1018.3 hPa | 0 mm | - | 830 W/m² | - |
| 1777907282 | 23.33° C | 39% | 1018.1 hPa | 0 mm | - | 816 W/m² | - |
| 1777906979 | 23.89° C | 38% | 1018.3 hPa | 0 mm | - | 799 W/m² | - |
| 1777906676 | 23.33° C | 38% | 1018.2 hPa | 0 mm | - | 783 W/m² | - |
| 1777906373 | 23.33° C | 38% | 1018.2 hPa | 0 mm | - | 768 W/m² | - |
| 1777906069 | 22.78° C | 41% | 1018.3 hPa | 0 mm | - | 751 W/m² | - |
| 1777905766 | 22.78° C | 40% | 1018.3 hPa | 0 mm | - | 740 W/m² | - |
| 1777905463 | 22.78° C | 38% | 1018.4 hPa | 0 mm | - | 722 W/m² | - |
| 1777905161 | 22.78° C | 42% | 1018.2 hPa | 0 mm | - | 662 W/m² | - |
| 1777904857 | 22.22° C | 40% | 1018.3 hPa | 0 mm | - | 691 W/m² | - |
| 1777904555 | 22.22° C | 42% | 1018.4 hPa | 0 mm | - | 661 W/m² | - |
| 1777904252 | 22.22° C | 45% | 1018.4 hPa | 0 mm | - | 646 W/m² | - |
| 1777903949 | 22.22° C | 48% | 1018.2 hPa | 0 mm | - | 631 W/m² | - |
| 1777903645 | 21.11° C | 47% | 1018.3 hPa | 0 mm | - | 616 W/m² | - |
| 1777903341 | 20.56° C | 51% | 1018.3 hPa | 0 mm | - | 593 W/m² | - |
| 1777903038 | 20° C | 48% | 1018.3 hPa | 0 mm | - | 572 W/m² | - |
| 1777902734 | 20° C | 54% | 1018.2 hPa | 0 mm | - | 548 W/m² | - |
| 1777902432 | 20.56° C | 46% | 1018.3 hPa | 0 mm | - | 145 W/m² | - |
| 1777902128 | 20° C | 50% | 1018.2 hPa | 0 mm | - | 494 W/m² | - |
| 1777901827 | 20.56° C | 47% | 1018.3 hPa | 0 mm | - | 90 W/m² | - |
* Rain latest hour (hover to see other rain measurements)
** Current wind speed in m/s (hover to see current wind gust speed)